createdAt,value
2019-03-11T00:01:40.984Z,99642.59
2019-03-11T00:06:44.445Z,99637.66
2019-03-11T00:11:47.909Z,99646.76
2019-03-11T00:16:51.371Z,99657.67
2019-03-11T00:21:54.829Z,99680.47
2019-03-11T00:26:58.301Z,99677.88
2019-03-11T00:32:01.761Z,99681.25
2019-03-11T00:37:05.226Z,99682.47
2019-03-11T00:42:08.684Z,99696.34
2019-03-11T00:47:12.206Z,99696.34
2019-03-11T00:52:15.670Z,99697.72
2019-03-11T00:57:19.128Z,99700.50
2019-03-11T01:02:22.591Z,99701.70
2019-03-11T01:07:26.049Z,99703.70
2019-03-11T01:12:29.510Z,99704.48
2019-03-11T01:17:32.968Z,99702.95
2019-03-11T01:22:36.430Z,99693.23
2019-03-11T01:27:39.885Z,99691.22
2019-03-11T01:32:43.411Z,99689.22
2019-03-11T01:37:46.868Z,99689.69
2019-03-11T01:42:51.811Z,99680.75
2019-03-11T01:47:55.471Z,99678.59
2019-03-11T01:52:58.934Z,99685.17
2019-03-11T01:58:02.388Z,99684.74
2019-03-11T02:03:05.852Z,99672.69
2019-03-11T02:08:09.308Z,99670.52
2019-03-11T02:13:12.764Z,99679.80
2019-03-11T02:18:16.218Z,99675.03
2019-03-11T02:23:19.674Z,99675.28
2019-03-11T02:28:23.132Z,99684.21
2019-03-11T02:33:26.593Z,99682.22
2019-03-11T02:38:30.058Z,99680.23
2019-03-11T02:43:33.521Z,99680.66
2019-03-11T02:48:36.989Z,99681.61
2019-03-11T02:53:40.455Z,99681.44
2019-03-11T02:58:43.928Z,99674.50
2019-03-11T03:03:55.071Z,99678.06
2019-03-11T03:08:58.518Z,99675.89
2019-03-11T03:14:01.998Z,99679.09
2019-03-11T03:19:05.607Z,99678.31
2019-03-11T03:24:09.082Z,99688.80
2019-03-11T03:29:12.555Z,99682.65
2019-03-11T03:34:16.040Z,99694.95
2019-03-11T03:39:19.516Z,99697.13
2019-03-11T03:44:22.991Z,99687.23
2019-03-11T03:49:26.519Z,99686.48
2019-03-11T03:54:30.020Z,99684.92
2019-03-11T03:59:33.494Z,99678.16
2019-03-11T04:04:36.963Z,99662.91
2019-03-11T04:09:40.433Z,99655.20
2019-03-11T04:14:43.904Z,99652.25
2019-03-11T04:19:47.448Z,99650.25
2019-03-11T04:24:51.158Z,99648.69
2019-03-11T04:29:54.633Z,99647.48
2019-03-11T04:34:58.106Z,99649.30
2019-03-11T04:40:01.592Z,99651.47
2019-03-11T04:45:08.504Z,99646.52
2019-03-11T04:50:17.056Z,99625.98
2019-03-11T04:55:20.553Z,99623.20
2019-03-11T05:00:26.507Z,99618.27
2019-03-11T05:05:29.982Z,99616.55
2019-03-11T05:10:33.462Z,99602.34
2019-03-11T05:15:36.941Z,99607.89
2019-03-11T05:20:40.426Z,99612.47
2019-03-11T05:25:43.894Z,99608.31
2019-03-11T05:30:47.369Z,99599.82
2019-03-11T05:35:50.849Z,99602.59
2019-03-11T05:40:54.326Z,99571.78
2019-03-11T05:45:57.806Z,99571.78
2019-03-11T05:51:01.281Z,99580.06
2019-03-11T05:56:04.755Z,99582.69
2019-03-11T06:01:08.227Z,99578.17
2019-03-11T06:06:11.712Z,99580.34
2019-03-11T06:11:15.167Z,99578.78
2019-03-11T06:16:18.625Z,99582.16
2019-03-11T06:21:23.733Z,99593.25
2019-03-11T06:26:27.193Z,99591.69
2019-03-11T06:31:30.819Z,99579.03
2019-03-11T06:36:34.279Z,99588.56
2019-03-11T06:41:37.735Z,99577.47
2019-03-11T06:46:41.201Z,99580.25
2019-03-11T06:51:44.662Z,99584.26
2019-03-11T06:56:48.143Z,99591.02
2019-03-11T07:01:51.586Z,99602.11
2019-03-11T07:06:55.047Z,99610.42
2019-03-11T07:11:58.499Z,99619.16
2019-03-11T07:17:01.964Z,99618.56
2019-03-11T07:22:05.487Z,99626.70
2019-03-11T07:27:08.946Z,99630.69
2019-03-11T07:32:12.405Z,99639.78
2019-03-11T07:37:15.903Z,99647.92
2019-03-11T07:42:19.336Z,99643.94
2019-03-11T07:47:22.792Z,99646.89
2019-03-11T07:52:26.249Z,99639.86
2019-03-11T07:57:29.709Z,99642.55
2019-03-11T08:02:33.182Z,99641.52
2019-03-11T08:07:36.629Z,99651.72
2019-03-11T08:12:40.090Z,99649.13
2019-03-11T08:17:43.629Z,99656.13
2019-03-11T08:22:47.081Z,99654.84
2019-03-11T08:27:50.538Z,99657.62
2019-03-11T08:32:54.765Z,99656.84
2019-03-11T08:38:04.642Z,99656.23
2019-03-11T08:43:03.409Z,99665.05
2019-03-11T08:48:06.872Z,99673.72
2019-03-11T08:53:10.331Z,99669.56
2019-03-11T08:58:13.792Z,99671.13
2019-03-11T09:03:17.243Z,99672.16
2019-03-11T09:08:20.698Z,99670.45
2019-03-11T09:13:24.156Z,99674.61
2019-03-11T09:18:27.613Z,99670.59
2019-03-11T09:23:31.682Z,99665.69
2019-03-11T09:28:35.345Z,99671.05
2019-03-11T09:33:38.949Z,99676.60
2019-03-11T09:38:42.403Z,99677.81
2019-03-11T09:43:45.864Z,99688.30
2019-03-11T09:48:49.335Z,99688.91
2019-03-11T09:53:52.797Z,99687.52
2019-03-11T09:58:56.253Z,99685.95
2019-03-11T10:03:59.709Z,99688.98
2019-03-11T10:09:04.636Z,99697.73
2019-03-11T10:14:08.103Z,99700.17
2019-03-11T10:19:11.557Z,99694.34
2019-03-11T10:24:15.014Z,99690.65
2019-03-11T10:29:18.479Z,99683.72
2019-03-11T10:34:21.939Z,99689.08
2019-03-11T10:39:25.397Z,99693.42
2019-03-11T10:44:29.759Z,99694.63
2019-03-11T10:49:33.390Z,99686.13
2019-03-11T10:54:36.926Z,99691.50
2019-03-11T10:59:40.385Z,99696.87
2019-03-11T11:04:43.847Z,99694.09
2019-03-11T11:09:47.306Z,99695.91
2019-03-11T11:14:50.766Z,99707.61
2019-03-11T11:20:02.787Z,99713.79
2019-03-11T11:24:59.409Z,99717.31
2019-03-11T11:30:03.060Z,99711.95
2019-03-11T11:35:07.660Z,99721.47
2019-03-11T11:40:14.159Z,99726.69
2019-03-11T11:45:19.452Z,99733.63
2019-03-11T11:50:23.950Z,99732.06
2019-03-11T11:55:27.647Z,99729.97
2019-03-11T12:00:39.278Z,99731.11
2019-03-11T12:05:42.757Z,99732.39
2019-03-11T12:10:46.230Z,99731.89
2019-03-11T12:15:49.733Z,99723.14
2019-03-11T12:20:53.329Z,99724.08
2019-03-11T12:25:56.807Z,99731.19
2019-03-11T12:31:00.277Z,99741.50
2019-03-11T12:36:03.751Z,99734.23
2019-03-11T12:41:07.229Z,99751.20
2019-03-11T12:46:10.700Z,99747.64
2019-03-11T12:51:14.174Z,99748.67
2019-03-11T12:56:17.650Z,99769.48
2019-03-11T13:01:21.128Z,99782.61
2019-03-11T13:06:24.604Z,99790.55
2019-03-11T13:11:28.074Z,99775.56
2019-03-11T13:16:31.549Z,99754.47
2019-03-11T13:21:35.024Z,99752.07
2019-03-11T13:26:38.495Z,99757.64
2019-03-11T13:31:41.966Z,99758.70
2019-03-11T13:36:45.442Z,99779.33
2019-03-11T13:41:48.919Z,99788.37
2019-03-11T13:46:52.388Z,99795.05
2019-03-11T13:51:55.929Z,99793.58
2019-03-11T13:56:59.400Z,99798.09
2019-03-11T14:02:02.877Z,99807.80
2019-03-11T14:07:06.357Z,99823.22
2019-03-11T14:12:09.833Z,99834.81
2019-03-11T14:17:13.309Z,99829.63
2019-03-11T14:22:16.779Z,99845.72
2019-03-11T14:27:20.251Z,99837.58
2019-03-11T14:32:23.723Z,99836.92
2019-03-11T14:37:27.210Z,99838.82
2019-03-11T14:42:30.689Z,99838.04
2019-03-11T14:47:34.155Z,99851.51
2019-03-11T14:52:37.746Z,99857.69
2019-03-11T14:57:41.343Z,99859.16
2019-03-11T15:02:44.821Z,99866.03
2019-03-11T15:07:48.531Z,99869.80
2019-03-11T15:12:52.017Z,99869.70
2019-03-11T15:17:55.483Z,99868.68
2019-03-11T15:23:06.266Z,99871.21
2019-03-11T15:28:04.161Z,99876.67
2019-03-11T15:33:07.632Z,99879.02
2019-03-11T15:38:11.103Z,99892.64
2019-03-11T15:43:14.570Z,99895.56
2019-03-11T15:48:18.043Z,99897.55
2019-03-11T15:53:21.521Z,99896.34
2019-03-11T15:58:24.980Z,99894.27
2019-03-11T16:03:35.935Z,99901.80
2019-03-11T16:08:33.630Z,99898.61
2019-03-11T16:13:37.167Z,99899.39
2019-03-11T16:18:40.585Z,99902.34
2019-03-11T16:23:44.062Z,99912.66
2019-03-11T16:28:48.428Z,99911.88
2019-03-11T16:33:52.098Z,99926.16
2019-03-11T16:38:55.569Z,99923.20
2019-03-11T16:43:59.040Z,99931.52
2019-03-11T16:49:02.517Z,99934.08
2019-03-11T16:54:05.995Z,99945.48
2019-03-11T16:59:09.838Z,99951.90
2019-03-11T17:04:13.312Z,99959.08
2019-03-11T17:09:16.856Z,99968.97
2019-03-11T17:14:20.338Z,99980.67
2019-03-11T17:19:23.804Z,99978.53
2019-03-11T17:24:27.280Z,99978.28
2019-03-11T17:29:30.758Z,99986.70
2019-03-11T17:34:34.235Z,99983.50
2019-03-11T17:39:37.705Z,99990.02
2019-03-11T17:44:41.179Z,99989.59
2019-03-11T17:49:44.651Z,99990.38
2019-03-11T17:54:48.146Z,100009.95
2019-03-11T17:59:51.621Z,100023.83
2019-03-11T18:04:56.022Z,100027.84
2019-03-11T18:09:59.497Z,100027.35
2019-03-11T18:15:03.075Z,100019.72
2019-03-11T18:20:10.073Z,100037.06
2019-03-11T18:25:18.119Z,100032.35
2019-03-11T18:30:26.763Z,100033.19
2019-03-11T18:35:30.422Z,100028.70
2019-03-11T18:40:33.926Z,100040.22
2019-03-11T18:45:37.420Z,100035.27
2019-03-11T18:50:40.837Z,100030.75
2019-03-11T18:55:44.326Z,100044.43
2019-03-11T19:00:47.885Z,100045.66
2019-03-11T19:05:51.536Z,100046.09
2019-03-11T19:10:55.016Z,100045.30
2019-03-11T19:15:58.565Z,100051.27
2019-03-11T19:21:02.042Z,100052.47
2019-03-11T19:26:05.501Z,100063.98
2019-03-11T19:31:09.012Z,100068.14
2019-03-11T19:36:12.496Z,100064.44
2019-03-11T19:41:15.979Z,100072.13
2019-03-11T19:46:19.469Z,100074.89
2019-03-11T19:51:23.170Z,100087.04
2019-03-11T19:56:26.635Z,100093.79
2019-03-11T20:01:30.147Z,100109.23
2019-03-11T20:06:33.599Z,100117.36
2019-03-11T20:11:37.040Z,100124.11
2019-03-11T20:16:40.591Z,100132.25
2019-03-11T20:21:44.036Z,100139.78
2019-03-11T20:26:47.504Z,100153.23
2019-03-11T20:31:50.992Z,100152.27
2019-03-11T20:36:54.471Z,100161.19
2019-03-11T20:41:58.006Z,100171.67
2019-03-11T20:47:01.553Z,100177.03
2019-03-11T20:52:05.358Z,100178.27
2019-03-11T20:57:08.899Z,100194.72
2019-03-11T21:02:12.491Z,100209.38
2019-03-11T21:07:16.148Z,100219.49
2019-03-11T21:12:19.645Z,100235.34
2019-03-11T21:17:26.152Z,100243.67
2019-03-11T21:22:28.254Z,100243.67
2019-03-11T21:27:31.717Z,100253.19
2019-03-11T21:32:35.275Z,100258.73
2019-03-11T21:37:38.796Z,100257.95
2019-03-11T21:42:42.265Z,100264.28
2019-03-11T21:47:45.964Z,100273.80
2019-03-11T21:52:49.624Z,100284.89
2019-03-11T21:57:53.118Z,100288.27
2019-03-11T22:02:56.562Z,100306.89
2019-03-11T22:08:00.023Z,100317.19
2019-03-11T22:13:04.649Z,100338.59
2019-03-11T22:18:08.108Z,100345.52
2019-03-11T22:23:11.574Z,100363.55
2019-03-11T22:28:15.036Z,100371.27
2019-03-11T22:33:18.492Z,100373.09
2019-03-11T22:38:21.961Z,100389.89
2019-03-11T22:43:25.431Z,100396.66
2019-03-11T22:48:28.897Z,100400.20
2019-03-11T22:53:32.358Z,100412.52
2019-03-11T22:58:35.822Z,100426.38
2019-03-11T23:03:39.284Z,100433.91
2019-03-11T23:08:42.754Z,100451.34
2019-03-11T23:13:46.229Z,100460.45
2019-03-11T23:18:49.691Z,100476.70
2019-03-11T23:23:53.150Z,100486.00
2019-03-11T23:28:56.614Z,100489.97
2019-03-11T23:34:00.082Z,100503.05
2019-03-11T23:39:05.214Z,100522.45
2019-03-11T23:44:09.439Z,100526.02
2019-03-11T23:49:12.896Z,100536.33
2019-03-11T23:54:16.362Z,100547.41
2019-03-11T23:59:19.821Z,100555.14
